Time;durP1;ratioP1;P1;durP2;ratioP2;P2;SDS_P1;SDS_P2;PMS_P1;PMS_P2;Temp;Humidity;BMP_temperature;BMP_pressure;BME280_temperature;BME280_humidity;BME280_pressure;Samples;Min_cycle;Max_cycle;Signal;HPM_P1;HPM_P2
2024/02/17 00:00:20;;;;;;;46.22;42.53;;;;;;;;;;4180556;28;20045;-62
2024/02/17 00:02:21;;;;;;;45.25;41.85;;;;;;;;;;4180524;28;20428;-62
2024/02/17 00:04:23;;;;;;;43.53;39.92;;;;;;;;;;4180548;28;20045;-62
2024/02/17 00:06:25;;;;;;;45.23;41.63;;;;;;;;;;4180482;28;20059;-62
2024/02/17 00:08:26;;;;;;;45.93;42.53;;;;;;;;;;4180495;28;20106;-62
2024/02/17 00:10:28;;;;;;;46.67;43.17;;;;;;;;;;4180482;28;20370;-62
2024/02/17 00:12:30;;;;;;;44.35;40.92;;;;;;;;;;4179917;28;20040;-62
2024/02/17 00:14:34;;;;;;;41.28;38.25;;;;;;;;;;4183820;28;20048;-63
2024/02/17 00:16:35;;;;;;;46.13;42.83;;;;;;;;;;4183816;28;20041;-62
2024/02/17 00:18:37;;;;;;;49.40;45.88;;;;;;;;;;4183831;28;20056;-62
2024/02/17 00:20:39;;;;;;;48.28;44.65;;;;;;;;;;4184016;28;20489;-62
2024/02/17 00:22:41;;;;;;;45.92;42.13;;;;;;;;;;4183674;28;20036;-62
2024/02/17 00:24:43;;;;;;;45.37;41.87;;;;;;;;;;4183639;28;20069;-62
2024/02/17 00:26:45;;;;;;;42.97;39.88;;;;;;;;;;4183856;28;20333;-62
2024/02/17 00:28:47;;;;;;;46.28;42.95;;;;;;;;;;4183633;28;20049;-62
2024/02/17 00:30:49;;;;;;;43.60;40.42;;;;;;;;;;4179007;28;20512;-62
2024/02/17 00:32:51;;;;;;;47.83;44.33;;;;;;;;;;4167057;28;20049;-62
2024/02/17 00:34:53;;;;;;;44.05;40.67;;;;;;;;;;4167218;28;20134;-62
2024/02/17 00:36:54;;;;;;;48.75;45.03;;;;;;;;;;4167058;28;20516;-63
2024/02/17 00:38:56;;;;;;;45.10;41.73;;;;;;;;;;4166748;28;20460;-62
2024/02/17 00:40:57;;;;;;;60.63;50.93;;;;;;;;;;4166944;28;20041;-62
2024/02/17 00:42:59;;;;;;;55.15;50.20;;;;;;;;;;4167126;28;20042;-62
2024/02/17 00:45:01;;;;;;;55.00;49.37;;;;;;;;;;4174843;28;20037;-62
2024/02/17 00:47:02;;;;;;;54.30;49.10;;;;;;;;;;4183608;28;20098;-62
2024/02/17 00:49:04;;;;;;;55.00;49.92;;;;;;;;;;4183424;28;20041;-62
2024/02/17 00:51:06;;;;;;;50.57;46.43;;;;;;;;;;4183155;28;20041;-62
2024/02/17 00:53:14;;;;;;;49.58;45.42;;;;;;;;;;4183293;28;20279;-62
2024/02/17 00:55:15;;;;;;;46.90;42.83;;;;;;;;;;4183042;28;20049;-62
2024/02/17 00:57:17;;;;;;;41.03;38.33;;;;;;;;;;4183126;28;20375;-62
2024/02/17 00:59:19;;;;;;;44.33;41.37;;;;;;;;;;4183444;28;20049;-62
2024/02/17 01:01:20;;;;;;;44.88;41.55;;;;;;;;;;4183082;28;20386;-62
2024/02/17 01:03:34;;;;;;;41.92;38.40;;;;;;;;;;4182530;28;20071;-62
2024/02/17 01:05:38;;;;;;;47.80;44.45;;;;;;;;;;4173936;28;20599;-62
2024/02/17 01:07:40;;;;;;;48.75;44.95;;;;;;;;;;4166560;28;20049;-62
2024/02/17 01:09:41;;;;;;;48.20;44.42;;;;;;;;;;4166648;28;20493;-62
2024/02/17 01:11:43;;;;;;;48.72;45.50;;;;;;;;;;4166401;28;20042;-62
2024/02/17 01:13:45;;;;;;;45.33;41.70;;;;;;;;;;4166315;28;20041;-62
2024/02/17 01:15:47;;;;;;;44.55;41.55;;;;;;;;;;4172790;28;20283;-62
2024/02/17 01:17:48;;;;;;;44.47;41.25;;;;;;;;;;4182848;28;20068;-62
2024/02/17 01:19:50;;;;;;;46.42;43.05;;;;;;;;;;4183009;28;20098;-62
2024/02/17 01:21:52;;;;;;;43.63;41.05;;;;;;;;;;4182816;28;20107;-62
2024/02/17 01:23:55;;;;;;;41.78;39.08;;;;;;;;;;4182165;28;20149;-62
2024/02/17 01:25:57;;;;;;;40.38;37.85;;;;;;;;;;4182670;28;20049;-62
2024/02/17 01:27:58;;;;;;;39.60;37.15;;;;;;;;;;4170879;28;20052;-62
2024/02/17 01:30:00;;;;;;;41.00;38.70;;;;;;;;;;4166103;28;20460;-62
2024/02/17 01:32:02;;;;;;;36.20;33.55;;;;;;;;;;4166163;28;20044;-62
2024/02/17 01:34:04;;;;;;;37.83;35.78;;;;;;;;;;4166128;28;20087;-62
2024/02/17 01:36:12;;;;;;;36.57;33.87;;;;;;;;;;4166074;28;20037;-62
2024/02/17 01:38:14;;;;;;;39.58;37.45;;;;;;;;;;4165920;28;20038;-62
2024/02/17 01:40:16;;;;;;;40.50;37.70;;;;;;;;;;4166209;28;20037;-62
2024/02/17 01:42:18;;;;;;;38.47;36.13;;;;;;;;;;4164810;28;20069;-62
2024/02/17 01:44:20;;;;;;;37.03;34.85;;;;;;;;;;4165756;28;20091;-62
2024/02/17 01:46:22;;;;;;;38.25;35.65;;;;;;;;;;4165918;28;20041;-62
2024/02/17 01:48:24;;;;;;;39.55;37.25;;;;;;;;;;4165835;28;20075;-62
2024/02/17 01:50:26;;;;;;;39.42;37.05;;;;;;;;;;4165818;28;20049;-62
2024/02/17 01:52:29;;;;;;;40.42;38.03;;;;;;;;;;4165816;28;20050;-61
2024/02/17 01:54:30;;;;;;;41.22;38.60;;;;;;;;;;4165924;28;20049;-60
2024/02/17 01:56:32;;;;;;;43.17;40.57;;;;;;;;;;4165792;28;20102;-60
2024/02/17 01:58:35;;;;;;;40.92;37.88;;;;;;;;;;4164520;28;20112;-61
2024/02/17 02:00:37;;;;;;;45.38;42.13;;;;;;;;;;4165922;28;20040;-61
2024/02/17 02:02:41;;;;;;;42.58;39.78;;;;;;;;;;4172021;28;20049;-61
2024/02/17 02:04:43;;;;;;;44.63;41.58;;;;;;;;;;4182205;28;20083;-61
2024/02/17 02:06:44;;;;;;;42.58;39.20;;;;;;;;;;4182082;28;20041;-61
2024/02/17 02:08:49;;;;;;;48.95;45.80;;;;;;;;;;4182345;28;20045;-61
2024/02/17 02:10:51;;;;;;;47.17;43.92;;;;;;;;;;4182163;28;20115;-61
2024/02/17 02:12:53;;;;;;;46.15;42.45;;;;;;;;;;4181802;28;20124;-61
2024/02/17 02:15:01;;;;;;;46.38;43.17;;;;;;;;;;4181853;28;20035;-61
2024/02/17 02:17:03;;;;;;;45.42;41.95;;;;;;;;;;4181818;28;20040;-61
2024/02/17 02:19:05;;;;;;;47.10;43.30;;;;;;;;;;4181980;28;20124;-61
2024/02/17 02:21:06;;;;;;;45.92;42.55;;;;;;;;;;4181928;28;20311;-61
2024/02/17 02:23:08;;;;;;;45.57;42.27;;;;;;;;;;4178995;28;20041;-61
2024/02/17 02:25:11;;;;;;;53.13;48.70;;;;;;;;;;4165241;28;20304;-61
2024/02/17 02:27:13;;;;;;;53.75;49.50;;;;;;;;;;4165172;28;20521;-61
2024/02/17 02:29:15;;;;;;;45.73;42.37;;;;;;;;;;4165333;28;20045;-60
2024/02/17 02:31:16;;;;;;;46.05;42.50;;;;;;;;;;4165119;28;20125;-60
2024/02/17 02:33:18;;;;;;;48.07;44.33;;;;;;;;;;4165337;28;20037;-61
2024/02/17 02:35:20;;;;;;;45.78;42.63;;;;;;;;;;4165384;28;20038;-60
2024/02/17 02:37:26;;;;;;;44.88;41.88;;;;;;;;;;4171944;28;20045;-61
2024/02/17 02:39:28;;;;;;;44.55;40.97;;;;;;;;;;4181547;28;20521;-61
2024/02/17 02:41:29;;;;;;;44.70;41.40;;;;;;;;;;4180245;28;20079;-61
2024/02/17 02:43:31;;;;;;;46.53;42.97;;;;;;;;;;4181462;28;20040;-61
2024/02/17 02:45:33;;;;;;;49.65;45.50;;;;;;;;;;4181180;28;20067;-61
2024/02/17 02:47:35;;;;;;;48.05;44.30;;;;;;;;;;4181610;28;20051;-61
2024/02/17 02:49:37;;;;;;;48.10;44.38;;;;;;;;;;4181387;28;20048;-62
2024/02/17 02:51:38;;;;;;;46.10;42.72;;;;;;;;;;4181327;28;20512;-61
2024/02/17 02:53:40;;;;;;;45.28;42.22;;;;;;;;;;4181402;28;20191;-61
2024/02/17 02:55:42;;;;;;;41.42;38.28;;;;;;;;;;4181287;28;20500;-61
2024/02/17 02:57:43;;;;;;;43.50;40.43;;;;;;;;;;4181346;28;20049;-61
2024/02/17 02:59:46;;;;;;;43.22;40.10;;;;;;;;;;4181427;28;20353;-61
2024/02/17 03:01:48;;;;;;;42.70;40.08;;;;;;;;;;4181148;28;20116;-61
2024/02/17 03:03:49;;;;;;;42.67;39.77;;;;;;;;;;4181529;28;20059;-61
2024/02/17 03:05:51;;;;;;;45.22;42.13;;;;;;;;;;4180967;28;20048;-61
2024/02/17 03:07:53;;;;;;;45.92;42.28;;;;;;;;;;4181104;28;20041;-61
2024/02/17 03:09:54;;;;;;;49.40;45.75;;;;;;;;;;4181108;28;20037;-61
2024/02/17 03:11:56;;;;;;;44.53;41.72;;;;;;;;;;4180930;28;20522;-61
2024/02/17 03:13:58;;;;;;;42.78;39.70;;;;;;;;;;4179871;28;20044;-61
2024/02/17 03:15:59;;;;;;;45.88;42.75;;;;;;;;;;4181301;28;20045;-62
2024/02/17 03:18:01;;;;;;;44.13;40.80;;;;;;;;;;4180955;28;20041;-61
2024/02/17 03:20:06;;;;;;;47.97;43.85;;;;;;;;;;4172672;28;20041;-61
2024/02/17 03:22:08;;;;;;;49.13;45.45;;;;;;;;;;4164346;28;20045;-61
2024/02/17 03:24:10;;;;;;;44.93;41.80;;;;;;;;;;4164501;28;20044;-62
2024/02/17 03:26:12;;;;;;;41.95;39.20;;;;;;;;;;4164407;28;20052;-61
2024/02/17 03:28:14;;;;;;;44.23;41.07;;;;;;;;;;4164145;28;20049;-60
2024/02/17 03:30:15;;;;;;;45.17;42.03;;;;;;;;;;4164298;28;20091;-61
2024/02/17 03:32:17;;;;;;;44.23;41.23;;;;;;;;;;4164258;28;20115;-61
2024/02/17 03:34:19;;;;;;;42.30;39.30;;;;;;;;;;4176710;28;20527;-61
2024/02/17 03:36:21;;;;;;;43.72;40.65;;;;;;;;;;4180891;28;20302;-61
2024/02/17 03:38:22;;;;;;;44.70;41.45;;;;;;;;;;4180344;28;20045;-61
2024/02/17 03:40:24;;;;;;;45.55;42.13;;;;;;;;;;4180648;28;20079;-61
2024/02/17 03:42:25;;;;;;;43.25;40.15;;;;;;;;;;4180691;28;20049;-60
2024/02/17 03:44:27;;;;;;;42.70;39.47;;;;;;;;;;4180551;28;20044;-61
2024/02/17 03:46:29;;;;;;;44.33;41.28;;;;;;;;;;4180566;28;20386;-61
2024/02/17 03:48:30;;;;;;;42.93;39.77;;;;;;;;;;4180433;28;20110;-61
2024/02/17 03:50:32;;;;;;;42.83;40.03;;;;;;;;;;4179471;28;20567;-61
2024/02/17 03:52:34;;;;;;;46.47;42.95;;;;;;;;;;4180487;28;20330;-60
2024/02/17 03:54:35;;;;;;;38.20;35.97;;;;;;;;;;4180480;28;20408;-61
2024/02/17 03:56:37;;;;;;;40.80;38.28;;;;;;;;;;4180552;28;20651;-61
2024/02/17 03:58:39;;;;;;;42.72;39.85;;;;;;;;;;4180546;28;20045;-61
2024/02/17 04:00:41;;;;;;;34.63;32.92;;;;;;;;;;4180302;28;20049;-60
2024/02/17 04:02:42;;;;;;;35.28;33.58;;;;;;;;;;4180584;28;20048;-61
2024/02/17 04:04:44;;;;;;;35.13;32.90;;;;;;;;;;4180693;28;20103;-60
2024/02/17 04:06:47;;;;;;;35.83;33.95;;;;;;;;;;4180508;28;20516;-61
2024/02/17 04:08:49;;;;;;;34.20;32.50;;;;;;;;;;4180485;28;20045;-61
2024/02/17 04:10:51;;;;;;;36.77;34.77;;;;;;;;;;4180678;28;20060;-61
2024/02/17 04:12:53;;;;;;;38.97;36.83;;;;;;;;;;4180572;28;20044;-61
2024/02/17 04:14:54;;;;;;;33.10;31.47;;;;;;;;;;4180466;28;20037;-61
2024/02/17 04:16:56;;;;;;;35.15;33.45;;;;;;;;;;4165367;28;20284;-62
2024/02/17 04:18:58;;;;;;;43.67;40.75;;;;;;;;;;4163985;28;20037;-62
2024/02/17 04:21:00;;;;;;;42.28;39.30;;;;;;;;;;4164014;28;20037;-62
2024/02/17 04:23:01;;;;;;;42.10;38.70;;;;;;;;;;4163936;28;20056;-61
2024/02/17 04:25:03;;;;;;;41.97;39.47;;;;;;;;;;4163956;28;20041;-62
2024/02/17 04:27:07;;;;;;;41.80;39.03;;;;;;;;;;4162565;28;20053;-62
2024/02/17 04:29:10;;;;;;;43.53;39.95;;;;;;;;;;4164610;28;20505;-62
2024/02/17 04:31:12;;;;;;;43.30;40.22;;;;;;;;;;4180324;28;20049;-61
2024/02/17 04:33:13;;;;;;;44.70;41.13;;;;;;;;;;4180202;28;20065;-62
2024/02/17 04:35:15;;;;;;;45.07;42.17;;;;;;;;;;4180400;28;20555;-62
2024/02/17 04:37:18;;;;;;;42.27;39.37;;;;;;;;;;4180240;28;20345;-62
2024/02/17 04:39:20;;;;;;;44.67;41.47;;;;;;;;;;4180016;28;20378;-62
2024/02/17 04:41:22;;;;;;;42.42;39.50;;;;;;;;;;4179984;28;20072;-62
2024/02/17 04:43:24;;;;;;;46.03;42.55;;;;;;;;;;4180069;28;20053;-61
2024/02/17 04:45:26;;;;;;;51.17;47.17;;;;;;;;;;4179930;28;20460;-62
2024/02/17 04:47:28;;;;;;;52.85;48.50;;;;;;;;;;4180158;28;20515;-62
2024/02/17 04:49:30;;;;;;;50.22;46.47;;;;;;;;;;4180249;28;20056;-62
2024/02/17 04:51:31;;;;;;;49.65;45.67;;;;;;;;;;4180365;28;20037;-62
2024/02/17 04:53:36;;;;;;;40.53;38.10;;;;;;;;;;4180101;28;20044;-62
2024/02/17 04:55:38;;;;;;;38.63;36.63;;;;;;;;;;4180144;28;20041;-62
2024/02/17 04:57:40;;;;;;;37.97;36.08;;;;;;;;;;4180009;28;20079;-62
2024/02/17 04:59:42;;;;;;;38.60;36.58;;;;;;;;;;4181678;28;20052;-62
2024/02/17 05:01:44;;;;;;;37.63;35.72;;;;;;;;;;4181512;28;20052;-62
2024/02/17 05:03:46;;;;;;;37.75;36.15;;;;;;;;;;4183068;28;20095;-62
2024/02/17 05:05:48;;;;;;;37.17;35.37;;;;;;;;;;4183059;28;20044;-61
2024/02/17 05:07:50;;;;;;;35.65;33.67;;;;;;;;;;4181831;28;20052;-61
2024/02/17 05:09:51;;;;;;;36.10;34.17;;;;;;;;;;4181703;28;20098;-62
2024/02/17 05:11:55;;;;;;;39.72;37.40;;;;;;;;;;4169118;28;20296;-61
2024/02/17 05:13:57;;;;;;;40.53;37.65;;;;;;;;;;4166274;28;20041;-61
2024/02/17 05:15:58;;;;;;;39.60;36.95;;;;;;;;;;4166326;28;20045;-62
2024/02/17 05:18:00;;;;;;;43.67;40.80;;;;;;;;;;4166450;28;20049;-62
2024/02/17 05:20:03;;;;;;;40.22;37.58;;;;;;;;;;4166410;28;20041;-62
2024/02/17 05:22:05;;;;;;;40.97;38.08;;;;;;;;;;4166324;28;20037;-63
2024/02/17 05:24:10;;;;;;;39.38;37.33;;;;;;;;;;4166193;28;20111;-61
2024/02/17 05:26:11;;;;;;;40.67;38.33;;;;;;;;;;4173874;28;20453;-61
2024/02/17 05:28:14;;;;;;;38.42;36.38;;;;;;;;;;4182678;28;20052;-61
2024/02/17 05:30:17;;;;;;;38.45;36.40;;;;;;;;;;4182561;28;20106;-60
2024/02/17 05:32:19;;;;;;;38.90;36.90;;;;;;;;;;4182488;28;20049;-60
2024/02/17 05:34:21;;;;;;;39.43;37.17;;;;;;;;;;4182605;28;20036;-61
2024/02/17 05:36:23;;;;;;;37.85;35.85;;;;;;;;;;4182493;28;20568;-61
2024/02/17 05:38:24;;;;;;;39.05;36.72;;;;;;;;;;4182310;28;20072;-61
2024/02/17 05:40:26;;;;;;;41.20;38.97;;;;;;;;;;4184186;28;20100;-61
2024/02/17 05:42:28;;;;;;;38.90;36.47;;;;;;;;;;4199035;28;20505;-61
2024/02/17 05:44:29;;;;;;;41.33;38.80;;;;;;;;;;4198853;28;20036;-61
2024/02/17 05:46:31;;;;;;;39.63;37.25;;;;;;;;;;4199044;28;20032;-60
2024/02/17 05:48:33;;;;;;;37.58;35.47;;;;;;;;;;4198965;28;20040;-61
2024/02/17 05:50:35;;;;;;;38.65;36.33;;;;;;;;;;4198872;28;20110;-61
2024/02/17 05:52:38;;;;;;;40.55;38.13;;;;;;;;;;4198780;28;20457;-60
2024/02/17 05:54:40;;;;;;;38.50;36.28;;;;;;;;;;4198863;28;20068;-60
2024/02/17 05:56:41;;;;;;;43.83;40.97;;;;;;;;;;4198758;28;20032;-60
2024/02/17 05:58:45;;;;;;;40.22;37.72;;;;;;;;;;4198831;28;20581;-61
2024/02/17 06:00:47;;;;;;;44.53;41.30;;;;;;;;;;4198743;28;20041;-61
2024/02/17 06:02:49;;;;;;;43.05;40.35;;;;;;;;;;4198559;28;20110;-61
2024/02/17 06:04:50;;;;;;;43.05;40.38;;;;;;;;;;4198589;28;20508;-61
2024/02/17 06:06:52;;;;;;;41.70;38.80;;;;;;;;;;4191285;28;20048;-61
2024/02/17 06:08:54;;;;;;;39.53;37.23;;;;;;;;;;4172706;28;20296;-61
2024/02/17 06:10:55;;;;;;;43.45;40.15;;;;;;;;;;4170358;28;20038;-61
2024/02/17 06:12:57;;;;;;;42.57;40.10;;;;;;;;;;4167538;28;20127;-62
2024/02/17 06:14:59;;;;;;;36.13;34.27;;;;;;;;;;4173456;28;20276;-63
2024/02/17 06:17:07;;;;;;;38.53;36.38;;;;;;;;;;4165373;28;20288;-63
2024/02/17 06:21:32;;;;;;;37.65;35.63;;;;;;;;;;4171584;28;20124;-62
2024/02/17 06:23:34;;;;;;;39.78;37.42;;;;;;;;;;4171855;28;20047;-63
2024/02/17 06:25:35;;;;;;;38.72;36.33;;;;;;;;;;4169681;28;20099;-63
2024/02/17 06:27:37;;;;;;;42.65;39.83;;;;;;;;;;4166107;28;20056;-62
2024/02/17 06:29:40;;;;;;;45.03;42.23;;;;;;;;;;4163384;28;20069;-63
2024/02/17 06:31:42;;;;;;;58.15;52.70;;;;;;;;;;4163799;28;20073;-63
2024/02/17 06:33:44;;;;;;;42.53;39.67;;;;;;;;;;4163317;28;20428;-62
2024/02/17 06:35:46;;;;;;;44.15;40.90;;;;;;;;;;4170852;28;20076;-63
2024/02/17 06:37:48;;;;;;;43.83;40.75;;;;;;;;;;4174386;28;20059;-63
2024/02/17 06:39:49;;;;;;;48.63;45.28;;;;;;;;;;4171447;28;20045;-63
2024/02/17 06:41:51;;;;;;;42.63;39.75;;;;;;;;;;4191685;28;20098;-62
2024/02/17 06:43:53;;;;;;;44.85;41.78;;;;;;;;;;4170355;28;20053;-63
2024/02/17 06:45:54;;;;;;;45.70;42.47;;;;;;;;;;4173082;28;20041;-63
2024/02/17 06:47:57;;;;;;;43.72;41.17;;;;;;;;;;4178453;28;20037;-63
2024/02/17 06:49:59;;;;;;;86.18;67.90;;;;;;;;;;4163744;28;20457;-63
2024/02/17 06:52:01;;;;;;;55.58;50.55;;;;;;;;;;4163515;28;20073;-63
2024/02/17 06:54:02;;;;;;;52.70;48.00;;;;;;;;;;4163203;28;20049;-63
2024/02/17 06:56:04;;;;;;;118.07;87.17;;;;;;;;;;4172290;28;20040;-58
2024/02/17 06:58:06;;;;;;;102.70;83.20;;;;;;;;;;4172982;28;20136;-58
2024/02/17 07:00:07;;;;;;;57.58;52.00;;;;;;;;;;4172067;28;20500;-58
2024/02/17 07:02:09;;;;;;;116.47;82.95;;;;;;;;;;4175758;28;20041;-59
2024/02/17 07:04:11;;;;;;;76.78;65.75;;;;;;;;;;4169591;28;20053;-59
2024/02/17 07:06:19;;;;;;;72.73;61.57;;;;;;;;;;4177031;28;20394;-59
2024/02/17 07:08:21;;;;;;;79.25;67.85;;;;;;;;;;4175572;28;20045;-59
2024/02/17 07:10:23;;;;;;;81.45;68.90;;;;;;;;;;4165730;28;20052;-59
2024/02/17 07:12:26;;;;;;;69.90;62.88;;;;;;;;;;4177427;28;20123;-59
2024/02/17 07:14:28;;;;;;;44.25;41.38;;;;;;;;;;4176141;28;20072;-59
2024/02/17 07:16:29;;;;;;;41.95;39.25;;;;;;;;;;4167573;28;20041;-59
2024/02/17 07:18:31;;;;;;;41.50;39.20;;;;;;;;;;4179780;28;20037;-59
2024/02/17 07:20:33;;;;;;;41.42;39.05;;;;;;;;;;4180995;28;20033;-59
2024/02/17 07:22:36;;;;;;;38.70;36.57;;;;;;;;;;4168722;28;20055;-61
2024/02/17 07:24:37;;;;;;;33.67;32.22;;;;;;;;;;4175760;28;20040;-60
2024/02/17 07:26:43;;;;;;;36.40;34.50;;;;;;;;;;4180079;28;20120;-59
2024/02/17 07:28:47;;;;;;;36.83;34.88;;;;;;;;;;4173821;28;20095;-59
2024/02/17 07:30:49;;;;;;;34.38;32.58;;;;;;;;;;4164159;28;20052;-60
2024/02/17 07:32:51;;;;;;;30.48;29.17;;;;;;;;;;4172972;28;20079;-61
2024/02/17 07:34:53;;;;;;;25.63;24.63;;;;;;;;;;4169701;28;20079;-59
2024/02/17 07:36:56;;;;;;;23.42;22.73;;;;;;;;;;4165983;28;20041;-59
2024/02/17 07:38:57;;;;;;;18.50;17.83;;;;;;;;;;4173672;28;20124;-59
2024/02/17 07:40:59;;;;;;;13.60;13.15;;;;;;;;;;4164161;28;20120;-59
2024/02/17 07:43:02;;;;;;;13.63;13.32;;;;;;;;;;4164032;28;20053;-59
2024/02/17 07:45:04;;;;;;;17.38;16.88;;;;;;;;;;4165922;28;20041;-60
2024/02/17 07:47:06;;;;;;;19.73;18.95;;;;;;;;;;4162140;28;20052;-64
2024/02/17 07:49:08;;;;;;;23.45;22.58;;;;;;;;;;4168733;28;20033;-64
2024/02/17 07:51:09;;;;;;;31.33;29.83;;;;;;;;;;4173174;28;20061;-64
2024/02/17 07:53:11;;;;;;;31.88;29.48;;;;;;;;;;4168890;28;20349;-64
2024/02/17 07:55:13;;;;;;;34.28;32.03;;;;;;;;;;4178355;28;20040;-64
2024/02/17 07:57:14;;;;;;;36.50;34.38;;;;;;;;;;4180089;28;20045;-64
2024/02/17 07:59:16;;;;;;;38.65;35.75;;;;;;;;;;4180838;28;20048;-64
2024/02/17 08:01:19;;;;;;;36.47;34.38;;;;;;;;;;4180730;28;20037;-64
2024/02/17 08:03:21;;;;;;;36.28;33.67;;;;;;;;;;4180254;28;20558;-64
2024/02/17 08:05:23;;;;;;;36.55;34.30;;;;;;;;;;4180442;28;20095;-60
2024/02/17 08:07:25;;;;;;;36.87;35.17;;;;;;;;;;4180571;28;20551;-64
2024/02/17 08:09:26;;;;;;;37.35;35.45;;;;;;;;;;4180444;28;20044;-64
2024/02/17 08:11:28;;;;;;;34.63;32.80;;;;;;;;;;4180301;28;20040;-64
2024/02/17 08:13:31;;;;;;;35.78;33.85;;;;;;;;;;4180270;28;20484;-64
2024/02/17 08:15:32;;;;;;;37.55;35.53;;;;;;;;;;4167984;28;20065;-64
2024/02/17 08:17:34;;;;;;;34.67;32.97;;;;;;;;;;4165952;28;20155;-64
2024/02/17 08:19:37;;;;;;;35.75;33.95;;;;;;;;;;4173062;28;20129;-64
2024/02/17 08:21:39;;;;;;;35.47;33.50;;;;;;;;;;4179880;28;20124;-64
2024/02/17 08:23:43;;;;;;;33.78;32.10;;;;;;;;;;4179311;28;20045;-63
2024/02/17 08:25:45;;;;;;;38.17;36.28;;;;;;;;;;4170415;28;20045;-64
2024/02/17 08:27:47;;;;;;;35.47;33.63;;;;;;;;;;4168189;28;20037;-65
2024/02/17 08:29:49;;;;;;;31.48;29.95;;;;;;;;;;4168250;28;20041;-64
2024/02/17 08:31:51;;;;;;;35.38;33.78;;;;;;;;;;4167954;28;20053;-63
2024/02/17 08:33:53;;;;;;;31.65;30.35;;;;;;;;;;4163807;28;20068;-64
2024/02/17 08:35:55;;;;;;;34.42;32.92;;;;;;;;;;4165454;28;20103;-64
2024/02/17 08:37:57;;;;;;;174.20;101.93;;;;;;;;;;4167355;28;20410;-64
2024/02/17 08:39:59;;;;;;;183.18;111.07;;;;;;;;;;4182851;28;20055;-64
2024/02/17 08:42:01;;;;;;;93.53;66.88;;;;;;;;;;4165787;28;20088;-64
2024/02/17 08:44:03;;;;;;;53.28;47.75;;;;;;;;;;4166552;28;20045;-64
2024/02/17 08:46:05;;;;;;;61.08;54.70;;;;;;;;;;4166774;28;20168;-64
2024/02/17 08:48:07;;;;;;;58.07;52.60;;;;;;;;;;4171620;28;20453;-65
2024/02/17 08:50:09;;;;;;;40.65;37.85;;;;;;;;;;4183297;28;20362;-64
2024/02/17 08:52:10;;;;;;;40.65;37.90;;;;;;;;;;4183161;28;20040;-64
2024/02/17 08:54:16;;;;;;;38.53;35.97;;;;;;;;;;4183169;28;20588;-64
2024/02/17 08:56:18;;;;;;;44.05;41.00;;;;;;;;;;4166435;28;20038;-60
2024/02/17 08:58:19;;;;;;;46.13;42.50;;;;;;;;;;4165359;28;20439;-67
2024/02/17 09:00:23;;;;;;;47.80;43.97;;;;;;;;;;4163782;28;20044;-67
2024/02/17 09:02:24;;;;;;;60.05;53.95;;;;;;;;;;4164852;28;20030;-67
2024/02/17 09:04:26;;;;;;;49.95;45.92;;;;;;;;;;4166492;28;20424;-67
2024/02/17 09:06:28;;;;;;;49.00;45.00;;;;;;;;;;4166509;28;20052;-67
2024/02/17 09:08:29;;;;;;;45.23;41.83;;;;;;;;;;4166419;28;20837;-67
2024/02/17 09:10:31;;;;;;;43.75;40.45;;;;;;;;;;4168221;28;20678;-67
2024/02/17 09:12:33;;;;;;;44.00;40.85;;;;;;;;;;4182919;28;20405;-68
2024/02/17 09:14:34;;;;;;;40.07;37.43;;;;;;;;;;4182878;28;20047;-67
2024/02/17 09:16:36;;;;;;;41.27;38.40;;;;;;;;;;4182715;28;20114;-68
2024/02/17 09:18:38;;;;;;;46.28;42.72;;;;;;;;;;4182830;28;20120;-66
2024/02/17 09:20:39;;;;;;;43.63;40.40;;;;;;;;;;4182985;28;20103;-67
2024/02/17 09:22:41;;;;;;;41.72;38.95;;;;;;;;;;4182699;28;20052;-68
2024/02/17 09:24:43;;;;;;;39.42;36.67;;;;;;;;;;4182598;28;20053;-67
2024/02/17 09:26:45;;;;;;;37.83;35.60;;;;;;;;;;4182692;28;20045;-67
2024/02/17 09:28:47;;;;;;;37.22;35.03;;;;;;;;;;4182799;28;20044;-67
2024/02/17 09:30:49;;;;;;;37.63;35.07;;;;;;;;;;4182596;28;20045;-67
2024/02/17 09:32:51;;;;;;;41.05;38.25;;;;;;;;;;4182478;28;20048;-67
2024/02/17 09:34:54;;;;;;;38.33;35.75;;;;;;;;;;4182474;28;20454;-68
2024/02/17 09:36:56;;;;;;;30.42;28.73;;;;;;;;;;4182436;28;20043;-67
2024/02/17 09:38:58;;;;;;;53.20;47.75;;;;;;;;;;4182238;28;20130;-67
2024/02/17 09:41:00;;;;;;;53.73;48.23;;;;;;;;;;4182667;28;20044;-67
2024/02/17 09:43:01;;;;;;;35.20;32.30;;;;;;;;;;4182419;28;20072;-68
2024/02/17 09:45:04;;;;;;;42.80;38.40;;;;;;;;;;4181561;28;20041;-67
2024/02/17 09:47:05;;;;;;;37.13;34.05;;;;;;;;;;4182292;28;20075;-68
2024/02/17 09:49:07;;;;;;;31.92;29.42;;;;;;;;;;4182407;28;20071;-67
2024/02/17 09:51:13;;;;;;;26.58;25.10;;;;;;;;;;4177183;28;20555;-67
2024/02/17 09:53:15;;;;;;;26.40;24.67;;;;;;;;;;4165804;28;20041;-67
2024/02/17 09:55:17;;;;;;;;;;;;;;;;;;4166075;28;20038;-68
2024/02/17 09:57:19;;;;;;;24.40;22.75;;;;;;;;;;4165970;28;19925;-67
2024/02/17 09:59:22;;;;;;;;;;;;;;;;;;4166297;28;20037;-67
2024/02/17 10:01:26;;;;;;;21.02;19.88;;;;;;;;;;4165738;28;19936;-68
2024/02/17 10:03:29;;;;;;;21.90;20.52;;;;;;;;;;4165682;28;20088;-67
2024/02/17 10:05:31;;;;;;;;;;;;;;;;;;4166052;28;20436;-67
2024/02/17 10:07:45;;;;;;;27.35;24.45;;;;;;;;;;4173798;28;19925;-67
2024/02/17 10:09:47;;;;;;;20.27;18.90;;;;;;;;;;4181988;28;20079;-67
2024/02/17 10:11:49;;;;;;;22.92;21.52;;;;;;;;;;4181994;28;20135;-67
2024/02/17 10:13:59;;;;;;;19.60;18.02;;;;;;;;;;4181865;28;20084;-67
2024/02/17 10:16:00;;;;;;;20.02;18.70;;;;;;;;;;4181870;28;20037;-67
2024/02/17 10:18:02;;;;;;;19.53;18.43;;;;;;;;;;4181864;28;20571;-67
2024/02/17 10:20:04;;;;;;;17.00;16.13;;;;;;;;;;4181853;28;20341;-67
2024/02/17 10:22:06;;;;;;;15.60;14.57;;;;;;;;;;4181964;28;20041;-67
2024/02/17 10:24:08;;;;;;;15.32;14.38;;;;;;;;;;4181864;28;20075;-68
2024/02/17 10:26:10;;;;;;;15.10;14.25;;;;;;;;;;4174746;28;20509;-62
2024/02/17 10:28:12;;;;;;;13.18;12.43;;;;;;;;;;4181442;28;20413;-63
2024/02/17 10:30:16;;;;;;;12.53;11.83;;;;;;;;;;4181386;28;20041;-63
2024/02/17 10:32:18;;;;;;;10.55;9.95;;;;;;;;;;4173516;28;20056;-63
2024/02/17 10:34:19;;;;;;;11.07;10.47;;;;;;;;;;4163632;28;20543;-62
2024/02/17 10:36:22;;;;;;;10.02;9.23;;;;;;;;;;4164842;28;20452;-63
2024/02/17 10:38:25;;;;;;;8.68;8.10;;;;;;;;;;4164470;28;20041;-62
2024/02/17 10:40:28;;;;;;;8.55;8.15;;;;;;;;;;4165008;28;20041;-62
2024/02/17 10:42:30;;;;;;;11.57;10.68;;;;;;;;;;4164396;28;20034;-63
2024/02/17 10:44:32;;;;;;;12.13;11.35;;;;;;;;;;4164806;28;20069;-63
2024/02/17 10:46:36;;;;;;;6.47;6.27;;;;;;;;;;4165183;28;20096;-60
2024/02/17 10:48:41;;;;;;;5.03;4.82;;;;;;;;;;4165121;28;20291;-61
2024/02/17 10:50:45;;;;;;;3.63;3.53;;;;;;;;;;4173723;28;20652;-61
2024/02/17 10:52:47;;;;;;;2.60;2.60;;;;;;;;;;4168486;28;20563;-60
2024/02/17 10:54:53;;;;;;;2.63;2.63;;;;;;;;;;4165801;28;20513;-62
2024/02/17 10:56:55;;;;;;;2.67;2.67;;;;;;;;;;4162913;28;20045;-60
2024/02/17 10:58:59;;;;;;;2.70;2.60;;;;;;;;;;4164518;28;20041;-61
2024/02/17 11:01:00;;;;;;;3.83;2.40;;;;;;;;;;4164126;28;20033;-60
2024/02/17 11:03:03;;;;;;;2.83;2.63;;;;;;;;;;4165986;28;20049;-60
2024/02/17 11:05:07;;;;;;;2.30;2.30;;;;;;;;;;4179462;28;20044;-60
2024/02/17 11:07:10;;;;;;;2.38;2.17;;;;;;;;;;4177629;28;20119;-60
2024/02/17 11:09:12;;;;;;;2.53;2.45;;;;;;;;;;4179288;28;20060;-60
2024/02/17 11:11:33;;;;;;;2.20;2.03;;;;;;;;;;4169976;28;20052;-60
2024/02/17 11:13:35;;;;;;;2.15;2.05;;;;;;;;;;4179987;28;20103;-60
2024/02/17 11:15:56;;;;;;;2.50;2.50;;;;;;;;;;4172257;28;20029;-60
2024/02/17 11:17:59;;;;;;;2.38;2.35;;;;;;;;;;4179717;28;20283;-65
2024/02/17 11:20:06;;;;;;;2.75;2.65;;;;;;;;;;4172207;28;20029;-65
2024/02/17 11:22:08;;;;;;;3.33;2.95;;;;;;;;;;4173694;28;20048;-64
2024/02/17 11:24:12;;;;;;;1.83;1.73;;;;;;;;;;4174275;28;20501;-65
2024/02/17 11:26:18;;;;;;;3.03;2.72;;;;;;;;;;4172187;28;20687;-65
2024/02/17 11:28:37;;;;;;;1.52;1.52;;;;;;;;;;4160899;28;20033;-65
2024/02/17 11:30:49;;;;;;;1.85;1.48;;;;;;;;;;4180673;28;20076;-65
2024/02/17 11:32:57;;;;;;;0.95;0.95;;;;;;;;;;4174093;28;20048;-64
2024/02/17 11:35:00;;;;;;;1.20;1.20;;;;;;;;;;4168906;28;20061;-65
2024/02/17 11:37:03;;;;;;;1.30;1.30;;;;;;;;;;4164265;28;20038;-61
2024/02/17 11:39:06;;;;;;;0.93;0.93;;;;;;;;;;4171402;28;20049;-61
2024/02/17 11:41:11;;;;;;;0.90;0.90;;;;;;;;;;4167060;28;20091;-61
2024/02/17 11:43:14;;;;;;;0.80;0.80;;;;;;;;;;4165299;28;20068;-61
2024/02/17 11:45:15;;;;;;;0.90;0.90;;;;;;;;;;4174693;28;20051;-62
2024/02/17 11:47:17;;;;;;;1.58;0.90;;;;;;;;;;4171538;28;20120;-61
2024/02/17 11:49:27;;;;;;;0.90;0.90;;;;;;;;;;4169433;28;20047;-61
2024/02/17 11:51:31;;;;;;;0.90;0.90;;;;;;;;;;4174914;28;20069;-61
2024/02/17 11:53:33;;;;;;;0.90;0.90;;;;;;;;;;4174184;28;20049;-60
2024/02/17 11:55:35;;;;;;;0.90;0.90;;;;;;;;;;4169025;28;20068;-61
2024/02/17 11:57:39;;;;;;;0.90;0.90;;;;;;;;;;4169493;28;20469;-61